Time;durP1;ratioP1;P1;durP2;ratioP2;P2;SDS_P1;SDS_P2;PMS_P1;PMS_P2;Temp;Humidity;BMP_temperature;BMP_pressure;BME280_temperature;BME280_humidity;BME280_pressure;Samples;Min_cycle;Max_cycle;Signal;HPM_P1;HPM_P2
2022/04/03 00:00:12;;;;;;;9.10;4.53;;;3.80;99.90;;;;;;5087637;28;20116;-59
2022/04/03 00:02:38;;;;;;;9.93;5.53;;;3.80;99.90;;;;;;5085366;28;20042;-60
2022/04/03 00:05:05;;;;;;;9.32;4.45;;;3.80;99.90;;;;;;5087931;28;20028;-61
2022/04/03 00:07:31;;;;;;;6.82;4.40;;;3.80;99.90;;;;;;5090527;28;20416;-60
2022/04/03 00:09:57;;;;;;;9.40;4.05;;;3.80;99.90;;;;;;5087327;28;20036;-59
2022/04/03 00:12:23;;;;;;;10.90;4.43;;;3.80;99.90;;;;;;5084614;28;20409;-60
2022/04/03 00:14:49;;;;;;;7.07;4.00;;;3.80;99.90;;;;;;5088115;28;20024;-59
2022/04/03 00:17:15;;;;;;;11.57;4.47;;;3.70;99.90;;;;;;5085240;28;20028;-58
2022/04/03 00:19:41;;;;;;;6.75;3.80;;;3.70;99.90;;;;;;5083927;28;20032;-59
2022/04/03 00:22:07;;;;;;;9.45;4.32;;;3.70;99.90;;;;;;5088697;28;20020;-59
2022/04/03 00:24:32;;;;;;;9.13;4.43;;;3.70;99.90;;;;;;5084523;28;20493;-62
2022/04/03 00:26:58;;;;;;;8.98;4.15;;;3.70;99.90;;;;;;5084411;28;20032;-59
2022/04/03 00:29:23;;;;;;;17.92;6.43;;;3.70;99.90;;;;;;5087676;28;20024;-61
2022/04/03 00:31:49;;;;;;;10.80;5.13;;;3.70;99.90;;;;;;5090750;28;20040;-61
2022/04/03 00:34:14;;;;;;;9.55;4.63;;;3.70;99.90;;;;;;5090627;28;20032;-60
2022/04/03 00:36:40;;;;;;;7.10;3.97;;;3.70;99.90;;;;;;5089029;28;20056;-62
2022/04/03 00:39:05;;;;;;;7.30;4.55;;;3.70;99.90;;;;;;5091486;28;20062;-62
2022/04/03 00:41:31;;;;;;;7.25;4.32;;;3.70;99.90;;;;;;5093918;28;20578;-61
2022/04/03 00:43:59;;;;;;;10.68;4.75;;;3.60;99.90;;;;;;5090748;28;20029;-62
2022/04/03 00:46:27;;;;;;;9.07;4.15;;;3.70;99.90;;;;;;5090291;28;20088;-61
2022/04/03 00:48:53;;;;;;;8.70;3.83;;;3.60;99.90;;;;;;5091843;28;20172;-63
2022/04/03 00:51:19;;;;;;;10.80;3.67;;;3.60;99.90;;;;;;5093561;28;20028;-62
2022/04/03 00:53:44;;;;;;;10.13;5.43;;;3.60;99.90;;;;;;5073198;28;20103;-62
2022/04/03 00:56:10;;;;;;;6.97;4.40;;;3.60;99.90;;;;;;5093207;28;20036;-59
2022/04/03 00:58:38;;;;;;;9.55;3.75;;;3.60;99.90;;;;;;5087758;28;20038;-60
2022/04/03 01:01:04;;;;;;;9.25;4.60;;;3.60;99.90;;;;;;5092089;28;20062;-62
2022/04/03 01:03:30;;;;;;;8.30;4.20;;;3.60;99.90;;;;;;5090893;28;20036;-62
2022/04/03 01:05:56;;;;;;;8.98;4.78;;;3.60;99.90;;;;;;5092701;28;20036;-59
2022/04/03 01:08:24;;;;;;;8.43;4.30;;;3.60;99.90;;;;;;5091700;28;20066;-61
2022/04/03 01:10:50;;;;;;;10.15;4.45;;;3.60;99.90;;;;;;5091852;28;20035;-62
2022/04/03 01:13:16;;;;;;;7.78;4.18;;;3.60;99.90;;;;;;5092192;28;20478;-63
2022/04/03 01:15:42;;;;;;;10.50;4.72;;;3.50;99.90;;;;;;5088978;28;20596;-60
2022/04/03 01:18:08;;;;;;;10.45;4.80;;;3.60;99.90;;;;;;5090314;28;20016;-60
2022/04/03 01:20:35;;;;;;;7.32;4.03;;;3.60;99.90;;;;;;5088390;28;20038;-62
2022/04/03 01:23:01;;;;;;;14.60;6.57;;;3.60;99.90;;;;;;5084834;28;20031;-60
2022/04/03 01:25:26;;;;;;;7.68;4.32;;;3.60;99.90;;;;;;5087867;28;20020;-61
2022/04/03 01:27:52;;;;;;;9.65;4.35;;;3.60;99.90;;;;;;5084936;28;20146;-60
2022/04/03 01:30:17;;;;;;;6.07;3.92;;;3.60;99.90;;;;;;5090630;28;20026;-59
2022/04/03 01:32:43;;;;;;;7.13;4.32;;;3.50;99.90;;;;;;5092348;28;20397;-61
2022/04/03 01:35:09;;;;;;;8.13;4.05;;;3.60;99.90;;;;;;5092329;28;20477;-58
2022/04/03 01:37:35;;;;;;;9.65;4.22;;;3.50;99.90;;;;;;5088609;28;20024;-61
2022/04/03 01:40:02;;;;;;;9.15;4.32;;;3.60;99.90;;;;;;5087327;28;20047;-59
2022/04/03 01:42:28;;;;;;;10.75;4.88;;;3.50;99.90;;;;;;5087664;28;20027;-60
2022/04/03 01:44:53;;;;;;;7.88;4.30;;;3.50;99.90;;;;;;5090532;28;20016;-59
2022/04/03 01:47:19;;;;;;;7.85;4.20;;;3.60;99.90;;;;;;5085876;28;20446;-58
2022/04/03 01:49:44;;;;;;;11.43;4.60;;;3.60;99.90;;;;;;5085700;28;20043;-58
2022/04/03 01:52:10;;;;;;;10.40;5.13;;;3.50;99.90;;;;;;5091976;28;20478;-64
2022/04/03 01:54:35;;;;;;;8.45;4.53;;;3.50;99.90;;;;;;5088558;28;20652;-61
2022/04/03 01:57:01;;;;;;;18.10;5.25;;;3.50;99.90;;;;;;5089990;28;20028;-60
2022/04/03 01:59:27;;;;;;;7.63;4.35;;;3.50;99.90;;;;;;5083781;28;20466;-62
2022/04/03 02:01:52;;;;;;;7.28;4.10;;;3.50;99.90;;;;;;5090468;28;20490;-60
2022/04/03 02:04:18;;;;;;;8.82;4.40;;;3.50;99.90;;;;;;5090393;28;20054;-59
2022/04/03 02:06:43;;;;;;;8.57;4.93;;;3.40;99.90;;;;;;5104313;23;20193;-57
2022/04/03 02:09:09;;;;;;;7.45;4.40;;;3.40;99.90;;;;;;5088565;28;20475;-55
2022/04/03 02:11:35;;;;;;;7.22;4.20;;;3.40;99.90;;;;;;5089895;28;20043;-56
2022/04/03 02:14:01;;;;;;;7.65;4.32;;;3.40;99.90;;;;;;5089722;28;20432;-56
2022/04/03 02:16:26;;;;;;;7.20;3.67;;;3.40;99.90;;;;;;5072600;28;20035;-56
2022/04/03 02:18:52;;;;;;;6.57;3.60;;;3.40;99.90;;;;;;5089906;28;20053;-58
2022/04/03 02:21:17;;;;;;;8.15;4.30;;;3.40;99.90;;;;;;5090559;28;20477;-59
2022/04/03 02:23:43;;;;;;;7.68;4.43;;;3.40;99.90;;;;;;5090610;28;20099;-56
2022/04/03 02:26:09;;;;;;;6.95;4.18;;;3.40;99.90;;;;;;5090031;28;20110;-58
2022/04/03 02:28:35;;;;;;;10.65;4.47;;;3.40;99.90;;;;;;5087375;28;20404;-60
2022/04/03 02:31:01;;;;;;;7.68;3.92;;;3.40;99.90;;;;;;5090000;28;20063;-59
2022/04/03 02:33:27;;;;;;;7.13;4.28;;;3.40;99.90;;;;;;5090746;28;20516;-55
2022/04/03 02:35:52;;;;;;;5.15;3.60;;;3.40;99.90;;;;;;5088735;28;20118;-58
2022/04/03 02:38:18;;;;;;;10.23;5.25;;;3.40;99.90;;;;;;5089973;28;20020;-58
2022/04/03 02:40:45;;;;;;;7.03;3.95;;;3.40;99.90;;;;;;5090115;28;20099;-60
2022/04/03 02:43:11;;;;;;;6.95;4.40;;;3.40;99.90;;;;;;5090044;28;20056;-60
2022/04/03 02:45:37;;;;;;;8.02;4.18;;;3.30;99.90;;;;;;5089886;28;20012;-57
2022/04/03 02:48:03;;;;;;;8.60;4.32;;;3.30;99.90;;;;;;5089724;28;20020;-57
2022/04/03 02:50:28;;;;;;;8.50;4.57;;;3.30;99.90;;;;;;5089786;28;20024;-58
2022/04/03 02:52:54;;;;;;;11.02;4.45;;;3.30;99.90;;;;;;5089794;28;20404;-56
2022/04/03 02:55:21;;;;;;;10.82;4.53;;;3.20;99.90;;;;;;5089409;28;20553;-59
2022/04/03 02:57:47;;;;;;;8.98;4.63;;;3.20;99.90;;;;;;5089280;28;20024;-58
2022/04/03 03:00:14;;;;;;;9.93;4.53;;;3.20;99.90;;;;;;5089088;28;20024;-58
2022/04/03 03:02:51;;;;;;;5.85;3.75;;;3.20;99.90;;;;;;5089657;28;20020;-56
2022/04/03 03:05:17;;;;;;;5.53;3.97;;;3.20;99.90;;;;;;5086907;28;20475;-57
2022/04/03 03:07:47;;;;;;;11.57;4.95;;;3.20;99.90;;;;;;5089772;28;20401;-58
2022/04/03 03:10:14;;;;;;;10.80;4.32;;;3.10;99.90;;;;;;5089557;28;20028;-60
2022/04/03 03:12:40;;;;;;;7.60;4.80;;;3.10;99.90;;;;;;5089235;28;20073;-56
2022/04/03 03:15:06;;;;;;;8.90;4.22;;;3.10;99.90;;;;;;5088824;28;20032;-59
2022/04/03 03:17:32;;;;;;;10.77;5.00;;;3.10;99.90;;;;;;5089104;28;20024;-58
2022/04/03 03:19:58;;;;;;;9.40;4.70;;;3.10;99.90;;;;;;5089235;28;20666;-58
2022/04/03 03:22:24;;;;;;;7.07;4.47;;;3.10;99.90;;;;;;5083008;28;20055;-56
2022/04/03 03:24:49;;;;;;;8.57;4.15;;;3.10;99.90;;;;;;5088827;28;20474;-57
2022/04/03 03:27:15;;;;;;;9.75;4.05;;;3.10;99.90;;;;;;5088771;28;20115;-58
2022/04/03 03:29:41;;;;;;;20.55;5.90;;;3.10;99.90;;;;;;5088811;28;20028;-59
2022/04/03 03:32:07;;;;;;;12.13;5.30;;;3.10;99.90;;;;;;5088799;28;20052;-59
2022/04/03 03:34:34;;;;;;;7.45;4.22;;;3.10;99.90;;;;;;5089397;28;20031;-55
2022/04/03 03:37:01;;;;;;;8.57;4.43;;;3.00;99.90;;;;;;5086872;28;20023;-56
2022/04/03 03:39:27;;;;;;;8.27;4.57;;;3.00;99.90;;;;;;5087845;28;20025;-57
2022/04/03 03:41:53;;;;;;;9.70;4.20;;;3.00;99.90;;;;;;5071695;28;20032;-57
2022/04/03 03:44:19;;;;;;;6.70;4.55;;;3.00;99.90;;;;;;5088461;28;20050;-58
2022/04/03 03:46:44;;;;;;;5.65;3.70;;;2.90;99.90;;;;;;5088827;28;20064;-58
2022/04/03 03:49:10;;;;;;;10.80;4.30;;;2.90;99.90;;;;;;5087883;28;20137;-59
2022/04/03 03:51:36;;;;;;;8.65;4.30;;;2.90;99.90;;;;;;5089108;28;20538;-58
2022/04/03 03:54:03;;;;;;;6.97;4.40;;;2.90;99.90;;;;;;5088321;28;20043;-58
2022/04/03 03:56:29;;;;;;;6.68;4.40;;;2.90;99.90;;;;;;5088801;28;20040;-57
2022/04/03 03:58:54;;;;;;;9.68;4.68;;;2.80;99.90;;;;;;5088602;28;20082;-55
2022/04/03 04:01:21;;;;;;;9.30;4.68;;;2.80;99.90;;;;;;5088257;28;20516;-58
2022/04/03 04:03:47;;;;;;;8.07;4.55;;;2.80;99.90;;;;;;5070039;28;20028;-56
2022/04/03 04:06:12;;;;;;;7.78;3.92;;;2.80;99.90;;;;;;5089548;28;20077;-59
2022/04/03 04:08:38;;;;;;;9.77;4.53;;;2.80;99.90;;;;;;5093015;28;20089;-55
2022/04/03 04:11:03;;;;;;;10.13;4.30;;;2.80;99.90;;;;;;5093088;28;20077;-60
2022/04/03 04:13:29;;;;;;;6.57;4.38;;;2.80;99.90;;;;;;5093613;28;20448;-56
2022/04/03 04:15:54;;;;;;;12.07;4.68;;;2.80;99.90;;;;;;5092864;28;20039;-55
2022/04/03 04:18:20;;;;;;;9.70;4.32;;;2.80;99.90;;;;;;5093065;28;20923;-58
2022/04/03 04:20:46;;;;;;;7.10;4.40;;;2.80;99.90;;;;;;5093041;28;20032;-56
2022/04/03 04:23:13;;;;;;;9.20;4.90;;;2.70;99.90;;;;;;5092455;28;20031;-57
2022/04/03 04:25:38;;;;;;;9.35;4.82;;;2.70;99.90;;;;;;5092860;28;20020;-55
2022/04/03 04:28:05;;;;;;;6.57;4.78;;;2.70;99.90;;;;;;5092762;28;20032;-59
2022/04/03 04:30:32;;;;;;;11.18;4.85;;;2.70;99.90;;;;;;5093434;28;20020;-61
2022/04/03 04:32:57;;;;;;;7.50;4.22;;;2.70;99.90;;;;;;5093521;28;20020;-57
2022/04/03 04:35:23;;;;;;;9.18;4.80;;;2.60;99.90;;;;;;5092299;28;20439;-59
2022/04/03 04:37:50;;;;;;;7.20;4.45;;;2.70;99.90;;;;;;5092916;28;20047;-58
2022/04/03 04:40:16;;;;;;;9.15;4.65;;;2.60;99.90;;;;;;5086104;28;20073;-58
2022/04/03 04:42:43;;;;;;;12.60;4.72;;;2.60;99.90;;;;;;5092773;28;20024;-57
2022/04/03 04:45:11;;;;;;;9.90;5.00;;;2.60;99.90;;;;;;5091499;28;20486;-56
2022/04/03 04:47:37;;;;;;;14.88;5.10;;;2.50;99.90;;;;;;5092622;28;20043;-59
2022/04/03 04:50:11;;;;;;;10.32;5.60;;;2.50;99.90;;;;;;5092305;28;20031;-57
2022/04/03 04:52:38;;;;;;;10.02;5.50;;;2.40;99.90;;;;;;5093028;28;20039;-57
2022/04/03 04:55:05;;;;;;;12.93;5.63;;;2.40;99.90;;;;;;5092400;28;20036;-54
2022/04/03 04:57:35;;;;;;;15.52;5.38;;;2.40;99.90;;;;;;5091312;28;20028;-57
2022/04/03 05:00:05;;;;;;;14.00;5.60;;;2.30;99.90;;;;;;5089216;28;20031;-58
2022/04/03 05:02:30;;;;;;;11.15;6.10;;;2.20;99.90;;;;;;5086545;28;20383;-58
2022/04/03 05:04:56;;;;;;;13.30;6.03;;;2.20;99.90;;;;;;5091860;28;20031;-58
2022/04/03 05:07:22;;;;;;;8.23;5.35;;;2.10;99.90;;;;;;5091657;28;20039;-57
2022/04/03 05:09:48;;;;;;;15.07;5.93;;;2.10;99.90;;;;;;5092134;28;20887;-57
2022/04/03 05:12:15;;;;;;;12.75;6.28;;;2.10;99.90;;;;;;5092390;28;20028;-58
2022/04/03 05:14:41;;;;;;;12.50;6.30;;;2.00;99.90;;;;;;5091050;28;20065;-57
2022/04/03 05:17:08;;;;;;;14.02;5.68;;;2.10;99.90;;;;;;5090490;28;20028;-58
2022/04/03 05:19:35;;;;;;;13.43;6.68;;;2.00;99.90;;;;;;5091251;28;20393;-59
2022/04/03 05:22:01;;;;;;;12.73;5.75;;;2.10;99.90;;;;;;5074293;28;20020;-54
2022/04/03 05:24:26;;;;;;;13.40;6.18;;;2.00;99.90;;;;;;5091773;28;20028;-57
2022/04/03 05:26:52;;;;;;;10.55;6.03;;;2.00;99.90;;;;;;5090581;28;21651;-58
2022/04/03 05:29:17;;;;;;;15.02;6.32;;;2.00;99.90;;;;;;5090897;28;20503;-58
2022/04/03 05:31:44;;;;;;;16.52;6.18;;;1.90;99.90;;;;;;5091829;28;20028;-57
2022/04/03 05:34:09;;;;;;;11.35;5.38;;;1.90;99.90;;;;;;5091625;28;20075;-56
2022/04/03 05:36:36;;;;;;;12.55;5.30;;;1.90;99.90;;;;;;5091948;28;20481;-58
2022/04/03 05:39:05;;;;;;;15.13;6.07;;;1.90;99.90;;;;;;5091117;28;20024;-57
2022/04/03 05:41:31;;;;;;;13.80;5.85;;;1.90;99.90;;;;;;5091100;28;20023;-56
2022/04/03 05:43:57;;;;;;;14.60;5.63;;;1.90;99.90;;;;;;5073603;28;20020;-56
2022/04/03 05:46:23;;;;;;;12.23;5.13;;;1.90;99.90;;;;;;5090656;28;20020;-56
2022/04/03 05:48:48;;;;;;;13.27;6.65;;;1.80;99.90;;;;;;5091639;28;20028;-59
2022/04/03 05:51:14;;;;;;;12.25;5.68;;;1.80;99.90;;;;;;5091918;28;20028;-55
2022/04/03 05:53:41;;;;;;;11.80;5.72;;;1.80;99.90;;;;;;5091699;28;20028;-58
2022/04/03 05:56:07;;;;;;;9.80;4.97;;;1.80;99.90;;;;;;5090781;28;20028;-59
2022/04/03 05:58:33;;;;;;;14.65;6.07;;;1.80;99.90;;;;;;5091467;28;20103;-60
2022/04/03 06:00:58;;;;;;;10.02;5.63;;;1.80;99.90;;;;;;5090845;28;20107;-56
2022/04/03 06:03:24;;;;;;;14.77;5.68;;;1.80;99.90;;;;;;5091017;28;20027;-57
2022/04/03 06:05:51;;;;;;;8.93;5.53;;;1.80;99.90;;;;;;5073254;28;20043;-58
2022/04/03 06:08:17;;;;;;;12.25;5.78;;;1.90;99.90;;;;;;5090934;28;20047;-59
2022/04/03 06:10:42;;;;;;;12.68;5.95;;;1.90;99.90;;;;;;5090263;28;20016;-58
2022/04/03 06:13:09;;;;;;;15.27;5.40;;;1.80;99.90;;;;;;5091478;28;20532;-59
2022/04/03 06:15:40;;;;;;;14.43;5.47;;;1.80;99.90;;;;;;5089466;28;20024;-56
2022/04/03 06:18:08;;;;;;;10.10;5.70;;;1.80;99.90;;;;;;5091217;28;20501;-59
2022/04/03 06:20:35;;;;;;;16.65;6.28;;;1.80;99.90;;;;;;5090039;28;20389;-60
2022/04/03 06:23:01;;;;;;;12.38;6.05;;;1.80;99.90;;;;;;5073013;28;20148;-59
2022/04/03 06:25:27;;;;;;;12.73;5.32;;;1.90;99.90;;;;;;5090557;28;20026;-60
2022/04/03 06:27:53;;;;;;;11.15;5.50;;;1.90;99.90;;;;;;5090708;28;20119;-58
2022/04/03 06:30:19;;;;;;;13.32;5.47;;;1.80;99.90;;;;;;5090157;28;20110;-58
2022/04/03 06:32:45;;;;;;;12.45;5.95;;;1.80;99.90;;;;;;5089129;28;21111;-52
2022/04/03 06:35:11;;;;;;;13.02;5.72;;;1.70;99.90;;;;;;5090846;28;20111;-55
2022/04/03 06:37:37;;;;;;;12.27;6.05;;;1.70;99.90;;;;;;5090846;28;20020;-56
2022/04/03 06:40:04;;;;;;;11.20;4.85;;;1.80;99.90;;;;;;5090598;28;20405;-55
2022/04/03 06:42:31;;;;;;;13.13;6.25;;;1.80;99.90;;;;;;5090609;28;20024;-58
2022/04/03 06:44:57;;;;;;;14.80;5.75;;;1.70;99.90;;;;;;5089955;28;20530;-55
2022/04/03 06:47:23;;;;;;;12.30;5.65;;;1.70;99.90;;;;;;5091133;28;20032;-58
2022/04/03 06:49:49;;;;;;;12.18;5.18;;;1.60;99.90;;;;;;5085188;28;20077;-58
2022/04/03 06:52:14;;;;;;;13.38;6.03;;;1.50;99.90;;;;;;5090075;28;20119;-58
2022/04/03 06:54:40;;;;;;;11.20;6.50;;;1.60;99.90;;;;;;5089777;28;20035;-57
2022/04/03 06:57:06;;;;;;;10.45;5.63;;;1.60;99.90;;;;;;5089446;28;20028;-58
2022/04/03 06:59:31;;;;;;;13.25;6.50;;;1.70;99.90;;;;;;5089944;28;20024;-56
2022/04/03 07:01:57;;;;;;;12.63;5.90;;;1.70;99.90;;;;;;5089775;28;20056;-59
2022/04/03 07:04:23;;;;;;;24.65;6.65;;;1.80;99.90;;;;;;5084039;28;20020;-56
2022/04/03 07:06:48;;;;;;;16.83;6.40;;;1.90;99.90;;;;;;5090589;28;20512;-57
2022/04/03 07:09:14;;;;;;;12.40;6.60;;;1.90;99.90;;;;;;5089850;28;20573;-53
2022/04/03 07:11:40;;;;;;;12.15;5.65;;;2.00;99.90;;;;;;5090505;28;20032;-57
2022/04/03 07:14:06;;;;;;;12.43;5.80;;;2.00;99.90;;;;;;5089401;28;20020;-54
2022/04/03 07:16:31;;;;;;;11.77;6.07;;;2.10;99.90;;;;;;5089415;28;20024;-57
2022/04/03 07:18:57;;;;;;;12.95;5.78;;;2.20;99.90;;;;;;5090422;28;20028;-56
2022/04/03 07:21:23;;;;;;;20.60;6.35;;;2.20;99.90;;;;;;5087670;28;20039;-60
2022/04/03 07:23:49;;;;;;;21.58;6.80;;;2.20;99.90;;;;;;5089988;28;20024;-60
2022/04/03 07:26:15;;;;;;;13.25;6.35;;;2.30;99.90;;;;;;5089597;28;20035;-59
2022/04/03 07:28:40;;;;;;;12.82;5.85;;;2.30;99.90;;;;;;5087379;28;20028;-60
2022/04/03 07:31:08;;;;;;;10.35;5.82;;;2.30;99.90;;;;;;5083514;28;20028;-56
2022/04/03 07:33:34;;;;;;;10.80;6.05;;;2.40;99.90;;;;;;5088774;28;20024;-58
2022/04/03 07:36:00;;;;;;;12.50;6.60;;;2.40;99.90;;;;;;5089316;28;20049;-59
2022/04/03 07:38:27;;;;;;;17.75;6.75;;;2.50;99.90;;;;;;5089856;28;20020;-59
2022/04/03 07:40:52;;;;;;;15.93;6.97;;;2.60;99.90;;;;;;5084888;28;20028;-60
2022/04/03 07:43:18;;;;;;;14.15;6.38;;;2.60;99.90;;;;;;5089757;28;20119;-59
2022/04/03 07:45:44;;;;;;;16.10;6.78;;;2.70;99.90;;;;;;5089239;28;20035;-60
2022/04/03 07:48:10;;;;;;;14.23;7.22;;;2.70;99.90;;;;;;5089791;28;20020;-59
2022/04/03 07:50:36;;;;;;;12.25;6.40;;;2.80;99.90;;;;;;5088763;28;20048;-60
2022/04/03 07:53:02;;;;;;;13.57;6.35;;;2.80;99.90;;;;;;5089810;28;20022;-59
2022/04/03 07:55:27;;;;;;;12.70;6.95;;;2.90;99.90;;;;;;5088543;28;20035;-58
2022/04/03 07:57:53;;;;;;;16.60;6.55;;;2.90;99.90;;;;;;5089515;28;20028;-59
2022/04/03 08:00:18;;;;;;;10.35;5.88;;;3.00;99.90;;;;;;5087811;28;20024;-60
2022/04/03 08:02:44;;;;;;;12.43;6.28;;;3.10;99.90;;;;;;5087853;28;20024;-61
2022/04/03 08:05:10;;;;;;;11.85;6.70;;;3.10;99.90;;;;;;5077992;28;20026;-60
2022/04/03 08:07:44;;;;;;;12.43;5.97;;;3.10;99.90;;;;;;5098477;22;20044;-58
2022/04/03 08:10:14;;;;;;;9.90;5.88;;;3.10;99.90;;;;;;5081997;28;20912;-62
2022/04/03 08:12:41;;;;;;;14.20;7.07;;;3.20;99.90;;;;;;5064917;28;20733;-62
2022/04/03 08:15:10;;;;;;;11.85;6.30;;;3.30;99.90;;;;;;5080719;28;20092;-61
2022/04/03 08:17:38;;;;;;;16.77;6.40;;;3.40;99.90;;;;;;5086508;28;20032;-59
2022/04/03 08:20:04;;;;;;;11.38;6.07;;;3.50;99.90;;;;;;5058182;28;20032;-61
2022/04/03 08:22:30;;;;;;;13.40;6.80;;;3.70;99.90;;;;;;5076042;28;20039;-62
2022/04/03 08:24:55;;;;;;;15.30;6.55;;;3.70;99.90;;;;;;5082150;28;20064;-61
2022/04/03 08:27:21;;;;;;;12.43;8.00;;;3.80;99.90;;;;;;5085457;28;20032;-62
2022/04/03 08:29:47;;;;;;;14.90;6.80;;;3.80;99.90;;;;;;5073247;28;20098;-61
2022/04/03 08:32:13;;;;;;;15.18;6.53;;;3.90;99.90;;;;;;5072598;28;20036;-62
2022/04/03 08:34:39;;;;;;;8.75;4.88;;;3.90;99.90;;;;;;5070166;28;20109;-61
2022/04/03 08:37:05;;;;;;;12.32;6.20;;;4.00;99.90;;;;;;5076045;28;20028;-63
2022/04/03 08:39:31;;;;;;;9.63;5.45;;;4.10;99.90;;;;;;5071760;28;20020;-61
2022/04/03 08:41:57;;;;;;;13.93;5.25;;;4.20;99.90;;;;;;5078238;28;20028;-63
2022/04/03 08:44:23;;;;;;;8.43;3.92;;;4.30;99.90;;;;;;5070752;28;20528;-62
2022/04/03 08:46:50;;;;;;;6.63;3.80;;;4.40;99.90;;;;;;5073011;28;20025;-61
2022/04/03 08:49:17;;;;;;;7.43;4.15;;;4.50;99.90;;;;;;5075305;28;20035;-64
2022/04/03 08:51:43;;;;;;;10.80;5.28;;;4.60;99.90;;;;;;5074629;28;20036;-63
2022/04/03 08:54:10;;;;;;;8.73;4.75;;;4.70;99.90;;;;;;5072715;28;20039;-63
2022/04/03 08:56:36;;;;;;;9.98;6.30;;;4.80;99.90;;;;;;5084394;28;20036;-63
2022/04/03 08:59:02;;;;;;;8.98;5.30;;;4.90;99.90;;;;;;5083894;28;20108;-61
2022/04/03 09:01:29;;;;;;;8.75;4.90;;;4.90;99.90;;;;;;5084357;28;20474;-62
2022/04/03 09:03:55;;;;;;;8.88;4.60;;;5.00;99.90;;;;;;5088062;28;20048;-61
2022/04/03 09:06:24;;;;;;;11.98;4.45;;;5.10;99.90;;;;;;5086118;28;20066;-62
2022/04/03 09:08:50;;;;;;;7.57;4.18;;;5.20;99.90;;;;;;5084613;28;20028;-60
2022/04/03 09:11:16;;;;;;;5.75;3.53;;;5.30;99.90;;;;;;5086216;28;20036;-62
2022/04/03 09:13:43;;;;;;;8.98;4.55;;;5.40;99.90;;;;;;5078282;28;20036;-62
2022/04/03 09:16:10;;;;;;;10.85;4.38;;;5.50;99.90;;;;;;5085091;28;20036;-63
2022/04/03 09:18:47;;;;;;;10.70;5.50;;;5.60;99.90;;;;;;5082135;28;20029;-62
2022/04/03 09:21:26;;;;;;;14.57;4.47;;;5.60;99.90;;;;;;5083074;28;20093;-61
2022/04/03 09:24:02;;;;;;;7.05;4.40;;;5.60;99.90;;;;;;5076841;28;20046;-62
2022/04/03 09:26:29;;;;;;;4.82;3.08;;;5.70;99.90;;;;;;5081455;28;20092;-62
2022/04/03 09:29:15;;;;;;;7.65;3.60;;;6.00;99.90;;;;;;5084323;28;20028;-62
2022/04/03 09:31:43;;;;;;;8.70;4.22;;;6.10;99.90;;;;;;5088232;28;20069;-61
2022/04/03 09:34:16;;;;;;;9.60;4.47;;;6.10;99.90;;;;;;5086456;28;20021;-62
2022/04/03 09:36:42;;;;;;;9.90;3.55;;;6.10;99.90;;;;;;5076721;28;20024;-60
2022/04/03 09:39:18;;;;;;;9.98;3.90;;;6.10;99.90;;;;;;5082500;28;20051;-61
2022/04/03 09:42:00;;;;;;;7.95;3.78;;;5.80;99.90;;;;;;5078748;28;20024;-60
2022/04/03 09:44:28;;;;;;;5.13;3.30;;;5.60;99.90;;;;;;5080969;28;20032;-60
2022/04/03 09:47:16;;;;;;;6.97;3.88;;;5.60;99.90;;;;;;5084534;28;20085;-60
2022/04/03 09:50:03;;;;;;;9.57;4.25;;;5.70;99.90;;;;;;5084258;28;20028;-62
2022/04/03 09:52:36;;;;;;;7.05;3.40;;;6.00;99.90;;;;;;5084818;28;20055;-63
2022/04/03 09:55:20;;;;;;;6.35;3.78;;;6.60;99.90;;;;;;5068093;28;20027;-61
2022/04/03 09:57:47;;;;;;;7.10;4.18;;;6.90;99.90;;;;;;5080604;28;20036;-63
2022/04/03 10:00:28;;;;;;;7.57;4.25;;;7.10;99.90;;;;;;5085811;28;20533;-61
2022/04/03 10:03:02;;;;;;;6.40;3.85;;;6.80;99.90;;;;;;5066516;28;20935;-63
2022/04/03 10:05:32;;;;;;;;;;;6.60;99.90;;;;;;5081769;28;20112;-61
2022/04/03 10:08:02;;;;;;;6.45;4.68;;;6.30;99.90;;;;;;5083379;28;19920;-62
2022/04/03 10:10:29;;;;;;;9.98;5.70;;;6.20;99.90;;;;;;5084363;28;20028;-62
2022/04/03 10:12:55;;;;;;;10.68;6.50;;;6.30;99.90;;;;;;5072369;28;20078;-62
2022/04/03 10:15:22;;;;;;;13.02;5.90;;;6.20;99.90;;;;;;5084665;28;20036;-62
2022/04/03 10:17:47;;;;;;;10.88;5.38;;;6.10;99.90;;;;;;5079598;28;20032;-62
2022/04/03 10:20:14;;;;;;;7.88;4.78;;;6.20;99.90;;;;;;5083175;28;20111;-63
2022/04/03 10:22:44;;;;;;;5.80;3.78;;;6.20;99.90;;;;;;5083664;28;20478;-61
2022/04/03 10:25:14;;;;;;;11.05;4.88;;;6.40;99.90;;;;;;5082343;28;20491;-62
2022/04/03 10:27:43;;;;;;;8.63;4.53;;;6.70;99.90;;;;;;5076566;28;20732;-63
2022/04/03 10:30:10;;;;;;;6.85;4.47;;;7.00;99.90;;;;;;5081604;28;20027;-62
2022/04/03 10:32:37;;;;;;;7.43;4.50;;;7.00;99.90;;;;;;5082351;28;20027;-63
2022/04/03 10:35:08;;;;;;;6.47;3.72;;;7.00;99.90;;;;;;5085346;28;20487;-63
2022/04/03 10:37:39;;;;;;;13.18;4.47;;;7.30;99.90;;;;;;5081510;28;20055;-63
2022/04/03 10:40:18;;;;;;;6.70;3.85;;;7.60;99.90;;;;;;5081094;28;20016;-62
2022/04/03 10:42:50;;;;;;;10.80;4.38;;;7.70;99.90;;;;;;5081972;28;20084;-62
2022/04/03 10:45:24;;;;;;;7.18;4.13;;;7.20;99.90;;;;;;5081155;28;20028;-61
2022/04/03 10:47:51;;;;;;;;;;;6.80;99.90;;;;;;5079518;28;20126;-62
2022/04/03 10:50:17;;;;;;;9.77;4.55;;;6.60;99.90;;;;;;5080537;28;19916;-62
2022/04/03 10:52:43;;;;;;;6.55;4.25;;;6.60;99.90;;;;;;5081182;28;20036;-63
2022/04/03 10:55:12;;;;;;;10.10;4.05;;;6.70;99.90;;;;;;5084547;28;20161;-62
2022/04/03 10:57:42;;;;;;;7.13;3.47;;;6.70;99.90;;;;;;5081136;28;20434;-63
2022/04/03 11:00:14;;;;;;;10.23;3.90;;;7.00;99.90;;;;;;5079419;28;20029;-63
2022/04/03 11:02:51;;;;;;;6.03;4.18;;;7.40;99.90;;;;;;5075183;28;20463;-64
2022/04/03 11:05:22;;;;;;;6.07;3.97;;;7.30;99.90;;;;;;5083017;28;20032;-65
2022/04/03 11:07:49;;;;;;;5.40;3.90;;;7.60;99.90;;;;;;5078783;28;20025;-64
2022/04/03 11:10:15;;;;;;;6.25;4.40;;;7.70;99.90;;;;;;5083227;28;20559;-64
2022/04/03 11:12:53;;;;;;;8.48;4.00;;;7.50;99.90;;;;;;5082947;28;20449;-63
2022/04/03 11:15:20;;;;;;;4.72;3.70;;;7.20;99.90;;;;;;5086256;28;20054;-61
2022/04/03 11:17:50;;;;;;;6.68;4.63;;;7.10;99.90;;;;;;5080422;28;20397;-63
2022/04/03 11:20:31;;;;;;;7.25;4.45;;;7.00;99.90;;;;;;5085080;28;20020;-63
2022/04/03 11:22:58;;;;;;;8.77;4.38;;;7.00;99.90;;;;;;5061759;28;20028;-63
2022/04/03 11:25:24;;;;;;;11.35;4.15;;;7.50;99.90;;;;;;5085864;28;20021;-63
2022/04/03 11:27:51;;;;;;;9.50;3.92;;;8.00;99.90;;;;;;5082697;28;20082;-62
2022/04/03 11:30:19;;;;;;;8.07;4.47;;;8.10;99.90;;;;;;5080782;28;20041;-65
2022/04/03 11:32:46;;;;;;;8.48;4.15;;;8.10;99.90;;;;;;5080713;28;20524;-63
2022/04/03 11:35:12;;;;;;;8.27;3.38;;;8.50;99.90;;;;;;5082256;28;20032;-62
2022/04/03 11:37:45;;;;;;;8.63;3.97;;;8.90;99.90;;;;;;5062563;28;20494;-64
2022/04/03 11:40:12;;;;;;;4.13;3.03;;;8.90;99.90;;;;;;5077055;28;20032;-63
2022/04/03 11:42:38;;;;;;;8.27;2.85;;;8.80;99.90;;;;;;5071680;28;20016;-62
2022/04/03 11:45:07;;;;;;;5.00;2.47;;;8.70;99.90;;;;;;5077594;28;20111;-61
2022/04/03 11:47:33;;;;;;;3.55;2.83;;;8.40;99.90;;;;;;5080979;28;20024;-64
2022/04/03 11:50:07;;;;;;;5.20;3.22;;;8.20;99.90;;;;;;5083728;28;20498;-66
2022/04/03 11:52:35;;;;;;;4.03;1.95;;;7.90;99.90;;;;;;5071903;28;20083;-63
2022/04/03 11:55:00;;;;;;;6.10;3.17;;;8.00;99.90;;;;;;5086268;28;20028;-62
2022/04/03 11:57:26;;;;;;;5.78;2.53;;;8.20;99.90;;;;;;5085960;28;20031;-62
2022/04/03 11:59:55;;;;;;;5.15;2.67;;;8.40;99.90;;;;;;5084413;28;20028;-60
2022/04/03 12:02:20;;;;;;;7.10;3.10;;;8.80;99.90;;;;;;5084903;28;20165;-62
2022/04/03 12:04:46;;;;;;;7.72;2.35;;;8.90;99.90;;;;;;5085284;28;20566;-62
2022/04/03 12:07:16;;;;;;;6.50;2.97;;;9.30;99.90;;;;;;5074588;28;20031;-63
2022/04/03 12:09:42;;;;;;;5.82;2.65;;;9.20;99.90;;;;;;5087134;28;20027;-63
2022/04/03 12:12:10;;;;;;;6.22;2.90;;;9.00;99.90;;;;;;5074568;28;20040;-62
2022/04/03 12:14:40;;;;;;;4.65;2.25;;;9.00;99.90;;;;;;5083286;28;20031;-62
2022/04/03 12:17:11;;;;;;;5.13;2.53;;;8.70;99.90;;;;;;5081015;28;20031;-62
2022/04/03 12:19:44;;;;;;;5.55;2.17;;;8.70;99.90;;;;;;5073916;28;20035;-62
2022/04/03 12:22:12;;;;;;;3.78;3.00;;;8.90;99.90;;;;;;5083572;28;20045;-63
2022/04/03 12:24:39;;;;;;;6.75;2.22;;;8.80;99.90;;;;;;5081499;28;20409;-63
2022/04/03 12:27:16;;;;;;;3.65;2.25;;;8.60;99.90;;;;;;5085148;28;20076;-64
2022/04/03 12:29:49;;;;;;;2.70;2.00;;;8.50;99.90;;;;;;5082427;28;20065;-62
2022/04/03 12:32:25;;;;;;;3.80;2.40;;;9.00;99.90;;;;;;5078678;28;20501;-63
2022/04/03 12:34:51;;;;;;;4.03;1.70;;;9.00;99.90;;;;;;5087916;28;20027;-61
2022/04/03 12:37:18;;;;;;;3.60;1.98;;;9.10;99.90;;;;;;5075931;28;20020;-60
2022/04/03 12:39:48;;;;;;;5.70;1.70;;;8.90;99.90;;;;;;5087806;28;20522;-63
2022/04/03 12:42:33;;;;;;;4.10;1.80;;;9.10;99.90;;;;;;5081217;28;20026;-62
2022/04/03 12:45:02;;;;;;;2.97;1.80;;;9.40;99.90;;;;;;5086487;28;20095;-62
2022/04/03 12:47:33;;;;;;;1.77;1.38;;;9.40;99.90;;;;;;5075780;28;20040;-63
2022/04/03 12:50:07;;;;;;;3.28;1.75;;;9.60;99.90;;;;;;5082474;28;20024;-62
2022/04/03 12:52:40;;;;;;;;;;;9.30;99.90;;;;;;5077318;28;20127;-61